createdAt,value
2022-10-19T00:02:12.303Z,40.20
2022-10-19T00:04:38.984Z,40.20
2022-10-19T00:07:05.571Z,40.18
2022-10-19T00:09:32.145Z,40.20
2022-10-19T00:11:58.717Z,40.19
2022-10-19T00:14:25.384Z,40.18
2022-10-19T00:16:52.329Z,40.20
2022-10-19T00:19:20.890Z,40.17
2022-10-19T00:21:47.737Z,40.18
2022-10-19T00:24:14.454Z,40.19
2022-10-19T00:26:41.137Z,40.18
2022-10-19T00:29:07.895Z,40.21
2022-10-19T00:31:34.571Z,40.17
2022-10-19T00:34:01.251Z,40.16
2022-10-19T00:36:30.472Z,40.15
2022-10-19T00:38:57.759Z,40.14
2022-10-19T00:41:25.974Z,40.15
2022-10-19T00:43:52.387Z,40.15
2022-10-19T00:46:18.945Z,40.13
2022-10-19T00:48:50.477Z,40.15
2022-10-19T00:51:17.025Z,40.16
2022-10-19T00:53:43.596Z,40.17
2022-10-19T00:56:13.035Z,40.18
2022-10-19T00:58:42.121Z,40.19
2022-10-19T01:01:09.227Z,40.19
2022-10-19T01:03:37.951Z,40.18
2022-10-19T01:06:04.768Z,40.18
2022-10-19T01:08:31.386Z,40.20
2022-10-19T01:11:39.747Z,40.19
2022-10-19T01:14:19.368Z,40.18
2022-10-19T01:17:08.075Z,40.19
2022-10-19T01:19:53.488Z,40.21
2022-10-19T01:22:20.375Z,40.23
2022-10-19T01:25:11.425Z,40.26
2022-10-19T01:27:44.554Z,40.28
2022-10-19T01:30:47.605Z,40.25
2022-10-19T01:33:26.222Z,40.31
2022-10-19T01:36:11.935Z,40.30
2022-10-19T01:38:44.835Z,40.34
2022-10-19T01:41:12.660Z,40.31
2022-10-19T01:44:19.084Z,40.33
2022-10-19T01:46:49.798Z,40.36
2022-10-19T01:49:22.147Z,40.38
2022-10-19T01:52:00.678Z,40.43
2022-10-19T01:54:30.647Z,40.43
2022-10-19T01:56:58.591Z,40.46
2022-10-19T01:59:25.192Z,40.46
2022-10-19T02:01:52.609Z,40.48
2022-10-19T02:04:20.002Z,40.53
2022-10-19T02:06:46.584Z,40.54
2022-10-19T02:09:18.247Z,40.66
2022-10-19T02:11:49.606Z,40.55
2022-10-19T02:14:18.658Z,40.56
2022-10-19T02:16:48.467Z,40.59
2022-10-19T02:19:15.091Z,40.59
2022-10-19T02:21:41.770Z,40.60
2022-10-19T02:24:08.341Z,40.62
2022-10-19T02:26:34.899Z,40.63
2022-10-19T02:29:01.537Z,40.64
2022-10-19T02:31:28.145Z,40.68
2022-10-19T02:33:54.712Z,40.69
2022-10-19T02:36:22.075Z,40.70
2022-10-19T02:38:48.658Z,40.72
2022-10-19T02:41:18.696Z,40.75
2022-10-19T02:43:51.399Z,40.76
2022-10-19T02:46:46.415Z,40.79
2022-10-19T02:49:13.016Z,40.77
2022-10-19T02:51:41.423Z,40.81
2022-10-19T02:54:08.410Z,40.84
2022-10-19T02:56:38.000Z,40.85
2022-10-19T02:59:04.660Z,40.86
2022-10-19T03:01:31.279Z,40.87
2022-10-19T03:03:57.928Z,40.90
2022-10-19T03:06:24.527Z,40.92
2022-10-19T03:08:51.107Z,40.94
2022-10-19T03:11:17.684Z,40.94
2022-10-19T03:13:44.461Z,40.96
2022-10-19T03:16:11.729Z,41.00
2022-10-19T03:18:38.296Z,41.00
2022-10-19T03:21:09.957Z,41.00
2022-10-19T03:23:36.762Z,41.03
2022-10-19T03:26:04.334Z,41.05
2022-10-19T03:28:32.338Z,41.08
2022-10-19T03:30:58.930Z,41.12
2022-10-19T03:36:18.062Z,41.17
2022-10-19T03:38:44.680Z,41.17
2022-10-19T03:41:11.371Z,41.23
2022-10-19T03:43:37.957Z,41.23
2022-10-19T03:46:04.615Z,41.31
2022-10-19T03:48:31.150Z,41.37
2022-10-19T03:51:20.160Z,41.39
2022-10-19T03:53:47.073Z,41.47
2022-10-19T03:56:15.210Z,41.87
2022-10-19T03:58:42.186Z,42.13
2022-10-19T04:01:11.079Z,41.72
2022-10-19T04:03:37.757Z,41.14
2022-10-19T04:06:05.813Z,40.96
2022-10-19T04:08:32.535Z,40.75
2022-10-19T04:11:06.416Z,40.42
2022-10-19T04:13:33.142Z,40.18
2022-10-19T04:15:59.875Z,39.96
2022-10-19T04:18:26.448Z,39.75
2022-10-19T04:21:00.351Z,39.67
2022-10-19T04:23:27.590Z,39.39
2022-10-19T04:26:00.230Z,39.43
2022-10-19T04:28:26.944Z,39.25
2022-10-19T04:30:53.535Z,39.18
2022-10-19T04:33:20.130Z,39.22
2022-10-19T04:35:46.719Z,39.22
2022-10-19T04:38:13.438Z,39.21
2022-10-19T04:40:39.995Z,39.39
2022-10-19T04:43:06.551Z,39.61
2022-10-19T04:45:35.398Z,39.59
2022-10-19T04:48:02.323Z,39.62
2022-10-19T04:50:28.911Z,39.67
2022-10-19T04:52:55.462Z,39.47
2022-10-19T04:55:22.005Z,39.77
2022-10-19T04:57:48.557Z,39.94
2022-10-19T05:00:15.481Z,39.95
2022-10-19T05:02:45.551Z,40.13
2022-10-19T05:05:13.250Z,40.09
2022-10-19T05:07:39.955Z,40.07
2022-10-19T05:10:07.244Z,40.23
2022-10-19T05:12:35.343Z,40.44
2022-10-19T05:15:02.131Z,40.45
2022-10-19T05:17:32.332Z,39.81
2022-10-19T05:19:59.134Z,40.71
2022-10-19T05:22:28.387Z,40.78
2022-10-19T05:24:58.050Z,40.63
2022-10-19T05:27:24.943Z,40.41
2022-10-19T05:29:51.504Z,40.57
2022-10-19T05:32:18.207Z,40.47
2022-10-19T05:34:44.746Z,40.42
2022-10-19T05:37:11.347Z,40.58
2022-10-19T05:39:37.951Z,40.59
2022-10-19T05:42:04.516Z,40.99
2022-10-19T05:44:31.141Z,40.98
2022-10-19T05:46:57.725Z,41.06
2022-10-19T05:49:24.365Z,41.16
2022-10-19T05:51:51.046Z,41.29
2022-10-19T05:54:17.625Z,41.36
2022-10-19T05:56:44.556Z,41.49
2022-10-19T05:59:16.476Z,41.51
2022-10-19T06:01:43.087Z,41.57
2022-10-19T06:04:10.842Z,41.59
2022-10-19T06:06:37.466Z,41.65
2022-10-19T06:09:04.085Z,41.64
2022-10-19T06:11:33.894Z,41.90
2022-10-19T06:14:02.365Z,41.95
2022-10-19T06:16:29.514Z,41.99
2022-10-19T06:18:56.141Z,42.03
2022-10-19T06:21:24.236Z,42.24
2022-10-19T06:23:51.861Z,42.32
2022-10-19T06:26:18.602Z,42.38
2022-10-19T06:28:45.258Z,42.43
2022-10-19T06:31:12.756Z,42.66
2022-10-19T06:33:39.755Z,42.74
2022-10-19T06:36:19.784Z,42.90
2022-10-19T06:38:46.583Z,42.81
2022-10-19T06:41:13.337Z,42.57
2022-10-19T06:43:40.339Z,43.00
2022-10-19T06:46:12.087Z,42.70
2022-10-19T06:48:40.643Z,42.62
2022-10-19T06:51:07.788Z,42.88
2022-10-19T06:53:35.485Z,42.63
2022-10-19T06:56:02.800Z,42.90
2022-10-19T06:58:29.444Z,42.87
2022-10-19T07:00:57.329Z,42.97
2022-10-19T07:03:24.944Z,42.63
2022-10-19T07:05:55.564Z,42.73
2022-10-19T07:08:25.221Z,42.70
2022-10-19T07:10:56.755Z,42.87
2022-10-19T07:13:23.529Z,42.78
2022-10-19T07:15:50.349Z,42.77
2022-10-19T07:18:17.002Z,42.97
2022-10-19T07:20:43.595Z,42.96
2022-10-19T07:23:10.140Z,42.96
2022-10-19T07:25:36.692Z,42.97
2022-10-19T07:28:03.430Z,43.12
2022-10-19T07:30:29.991Z,43.09
2022-10-19T07:32:56.735Z,43.19
2022-10-19T07:35:25.255Z,43.12
2022-10-19T07:37:51.913Z,42.99
2022-10-19T07:40:21.384Z,43.28
2022-10-19T07:42:47.950Z,43.68
2022-10-19T07:45:14.571Z,43.46
2022-10-19T07:47:41.167Z,43.22
2022-10-19T07:50:08.172Z,43.56
2022-10-19T07:52:36.851Z,43.94
2022-10-19T07:55:03.958Z,43.77
2022-10-19T07:57:30.563Z,43.70
2022-10-19T07:59:57.233Z,43.99
2022-10-19T08:02:30.781Z,44.53
2022-10-19T08:05:10.519Z,44.04
2022-10-19T08:07:38.267Z,44.39
2022-10-19T08:10:05.399Z,44.71
2022-10-19T08:12:32.317Z,44.08
2022-10-19T08:14:59.055Z,44.63
2022-10-19T08:17:25.683Z,44.55
2022-10-19T08:19:52.269Z,44.31
2022-10-19T08:22:18.892Z,44.48
2022-10-19T08:24:45.467Z,44.39
2022-10-19T08:27:12.259Z,44.60
2022-10-19T08:29:38.839Z,44.64
2022-10-19T08:32:05.495Z,44.75
2022-10-19T08:34:33.543Z,44.88
2022-10-19T08:37:06.766Z,45.47
2022-10-19T08:39:41.559Z,44.78
2022-10-19T08:42:23.498Z,44.93
2022-10-19T08:44:59.962Z,44.93
2022-10-19T08:47:50.663Z,45.08
2022-10-19T08:50:41.076Z,45.36
2022-10-19T08:53:11.673Z,45.40
2022-10-19T08:55:41.096Z,45.06
2022-10-19T08:58:20.550Z,45.27
2022-10-19T09:00:54.865Z,45.08
2022-10-19T09:03:55.903Z,45.06
2022-10-19T09:06:23.235Z,45.07
2022-10-19T09:08:53.809Z,44.93
2022-10-19T09:11:37.505Z,45.02
2022-10-19T09:14:36.422Z,45.27
2022-10-19T09:17:04.528Z,45.35
2022-10-19T09:19:32.078Z,44.43
2022-10-19T09:22:02.386Z,44.74
2022-10-19T09:24:37.768Z,45.27
2022-10-19T09:27:06.399Z,44.94
2022-10-19T09:29:48.100Z,44.88
2022-10-19T09:32:17.311Z,44.98
2022-10-19T09:34:45.882Z,45.08
2022-10-19T09:37:21.222Z,44.99
2022-10-19T09:39:55.717Z,45.15
2022-10-19T09:42:33.880Z,45.06
2022-10-19T09:45:12.463Z,45.62
2022-10-19T09:47:42.733Z,45.18
2022-10-19T09:50:09.284Z,45.55
2022-10-19T09:52:39.372Z,45.20
2022-10-19T09:55:14.943Z,45.33
2022-10-19T09:57:57.679Z,45.15
2022-10-19T10:00:25.710Z,44.93
2022-10-19T10:02:55.565Z,44.16
2022-10-19T10:05:32.494Z,44.56
2022-10-19T10:07:59.067Z,44.77
2022-10-19T10:10:37.118Z,44.86
2022-10-19T10:13:03.741Z,44.18
2022-10-19T10:15:44.006Z,44.59
2022-10-19T10:18:18.833Z,45.46
2022-10-19T10:20:58.832Z,45.02
2022-10-19T10:23:27.098Z,45.28
2022-10-19T10:25:57.376Z,44.93
2022-10-19T10:28:25.552Z,44.90
2022-10-19T10:31:05.312Z,45.05
2022-10-19T10:33:44.370Z,45.27
2022-10-19T10:36:12.075Z,45.29
2022-10-19T10:38:46.205Z,45.47
2022-10-19T10:41:14.836Z,45.22
2022-10-19T10:44:00.990Z,44.88
2022-10-19T10:46:46.283Z,44.93
2022-10-19T10:49:49.680Z,45.05
2022-10-19T10:52:16.495Z,45.19
2022-10-19T10:55:09.241Z,45.30
2022-10-19T10:57:38.435Z,45.12
2022-10-19T11:00:11.344Z,44.60
2022-10-19T11:03:12.214Z,44.02
2022-10-19T11:05:46.003Z,43.89
2022-10-19T11:08:12.449Z,43.65
2022-10-19T11:11:02.058Z,43.72
2022-10-19T11:13:39.296Z,43.60
2022-10-19T11:16:19.371Z,43.10
2022-10-19T11:18:51.999Z,42.57
2022-10-19T11:21:21.411Z,42.79
2022-10-19T11:24:14.449Z,42.35
2022-10-19T11:26:50.831Z,42.84
2022-10-19T11:29:24.227Z,42.49
2022-10-19T11:31:56.998Z,42.14
2022-10-19T11:34:37.011Z,41.67
2022-10-19T11:37:12.298Z,41.01
2022-10-19T11:39:57.703Z,39.94
2022-10-19T11:42:36.239Z,39.93
2022-10-19T11:45:22.240Z,40.37
2022-10-19T11:48:15.041Z,39.91
2022-10-19T11:50:54.140Z,40.08
2022-10-19T11:53:31.910Z,40.41
2022-10-19T11:56:07.341Z,40.23
2022-10-19T11:58:45.575Z,40.23
2022-10-19T12:01:17.414Z,39.92
2022-10-19T12:03:53.521Z,40.32
2022-10-19T12:06:29.078Z,40.09
2022-10-19T12:09:14.348Z,40.16
2022-10-19T12:11:59.034Z,40.86
2022-10-19T12:14:27.083Z,41.50
2022-10-19T12:16:56.798Z,41.16
2022-10-19T12:19:29.130Z,41.20
2022-10-19T12:22:00.090Z,41.11
2022-10-19T12:24:27.154Z,39.18
2022-10-19T12:26:54.224Z,39.32
2022-10-19T12:29:28.188Z,39.42
2022-10-19T12:31:55.296Z,38.96
2022-10-19T12:34:33.813Z,38.41
2022-10-19T12:37:20.486Z,38.78
2022-10-19T12:40:31.631Z,38.59
2022-10-19T12:43:12.371Z,38.21
2022-10-19T12:45:39.779Z,38.25
2022-10-19T12:48:10.922Z,38.34
2022-10-19T12:50:49.606Z,38.12
2022-10-19T12:53:30.918Z,37.83
2022-10-19T12:56:00.500Z,37.55
2022-10-19T12:58:27.051Z,37.90
2022-10-19T13:01:00.736Z,37.38
2022-10-19T13:03:38.259Z,36.83
2022-10-19T13:06:13.556Z,37.59
2022-10-19T13:08:46.738Z,38.24
2022-10-19T13:11:15.255Z,38.30
2022-10-19T13:13:53.239Z,38.80
2022-10-19T13:16:28.855Z,39.49
2022-10-19T13:19:14.435Z,40.17
2022-10-19T13:22:07.404Z,40.49
2022-10-19T13:24:35.576Z,40.70
2022-10-19T13:27:02.035Z,40.82
2022-10-19T13:29:48.740Z,40.89
2022-10-19T13:32:36.479Z,40.94
2022-10-19T13:35:22.310Z,41.03
2022-10-19T13:38:31.082Z,41.08
2022-10-19T13:41:25.562Z,41.13
2022-10-19T13:43:54.618Z,40.92
2022-10-19T13:46:30.378Z,41.10
2022-10-19T13:49:27.904Z,41.10
2022-10-19T13:52:05.739Z,41.15
2022-10-19T13:55:02.972Z,41.18
2022-10-19T13:58:02.675Z,41.22
2022-10-19T14:00:47.899Z,41.21
2022-10-19T14:03:37.640Z,41.08
2022-10-19T14:06:28.514Z,40.65
2022-10-19T14:09:16.938Z,40.50
2022-10-19T14:11:44.489Z,40.40
2022-10-19T14:14:10.901Z,40.26
2022-10-19T14:16:56.092Z,40.22
2022-10-19T14:19:32.875Z,40.33
2022-10-19T14:22:00.912Z,40.37
2022-10-19T14:24:29.688Z,40.00
2022-10-19T14:26:57.119Z,40.08
2022-10-19T14:29:23.715Z,39.96
2022-10-19T14:31:50.344Z,40.04
2022-10-19T14:34:17.052Z,40.32
2022-10-19T14:36:45.296Z,40.10
2022-10-19T14:39:35.259Z,40.23
2022-10-19T14:42:05.863Z,40.27
2022-10-19T14:44:42.583Z,40.20
2022-10-19T14:47:18.010Z,40.24
2022-10-19T14:49:44.786Z,40.02
2022-10-19T14:52:12.908Z,39.80
2022-10-19T14:54:41.729Z,39.94
2022-10-19T14:57:17.519Z,40.09
2022-10-19T14:59:50.259Z,40.01
2022-10-19T15:02:25.771Z,40.11
2022-10-19T15:04:53.325Z,40.17
2022-10-19T15:07:30.447Z,40.02
2022-10-19T15:09:58.422Z,39.68
2022-10-19T15:12:39.088Z,39.92
2022-10-19T15:15:25.200Z,40.04
2022-10-19T15:18:01.950Z,40.14
2022-10-19T15:20:43.869Z,40.00
2022-10-19T15:23:43.735Z,39.95
2022-10-19T15:26:26.413Z,40.10
2022-10-19T15:28:53.865Z,39.81
2022-10-19T15:31:24.224Z,39.69
2022-10-19T15:33:58.545Z,40.10
2022-10-19T15:36:25.129Z,39.93
2022-10-19T15:39:25.058Z,39.79
2022-10-19T15:42:36.177Z,39.96
2022-10-19T15:45:04.378Z,40.03
2022-10-19T15:47:31.326Z,39.97
2022-10-19T15:50:00.022Z,39.74
2022-10-19T15:52:32.291Z,39.55
2022-10-19T15:54:59.352Z,39.48
2022-10-19T15:57:36.851Z,39.78
2022-10-19T16:00:14.878Z,39.69
2022-10-19T16:02:41.554Z,39.83
2022-10-19T16:05:08.218Z,39.94
2022-10-19T16:07:36.739Z,39.80
2022-10-19T16:10:03.555Z,39.86
2022-10-19T16:12:30.367Z,39.61
2022-10-19T16:14:56.899Z,39.50
2022-10-19T16:17:23.461Z,39.35
2022-10-19T16:19:53.557Z,39.25
2022-10-19T16:22:20.254Z,39.21
2022-10-19T16:24:46.823Z,39.27
2022-10-19T16:27:15.244Z,39.49
2022-10-19T16:29:43.113Z,39.25
2022-10-19T16:32:09.682Z,39.17
2022-10-19T16:34:36.319Z,39.14
2022-10-19T16:37:05.949Z,39.04
2022-10-19T16:39:33.793Z,38.97
2022-10-19T16:42:00.470Z,39.03
2022-10-19T16:44:27.078Z,39.07
2022-10-19T16:46:56.184Z,38.93
2022-10-19T16:49:24.308Z,38.83
2022-10-19T16:51:53.254Z,38.92
2022-10-19T16:54:23.138Z,38.94
2022-10-19T16:56:49.845Z,38.78
2022-10-19T16:59:17.862Z,38.67
2022-10-19T17:01:44.954Z,38.81
2022-10-19T17:04:12.197Z,38.79
2022-10-19T17:06:38.874Z,39.10
2022-10-19T17:11:52.349Z,38.79
2022-10-19T17:14:18.987Z,38.95
2022-10-19T17:16:45.630Z,38.72
2022-10-19T17:19:12.527Z,38.75
2022-10-19T17:21:39.332Z,38.61
2022-10-19T17:24:07.587Z,38.70
2022-10-19T17:26:39.253Z,38.96
2022-10-19T17:29:05.998Z,38.56
2022-10-19T17:31:32.590Z,38.57
2022-10-19T17:34:00.665Z,38.92
2022-10-19T17:36:28.760Z,38.70
2022-10-19T17:38:58.967Z,38.73
2022-10-19T17:41:25.719Z,38.71
2022-10-19T17:43:52.674Z,38.51
2022-10-19T17:46:24.064Z,38.59
2022-10-19T17:48:50.652Z,38.67
2022-10-19T17:51:19.016Z,38.51
2022-10-19T17:53:46.530Z,38.65
2022-10-19T17:56:15.000Z,38.69
2022-10-19T17:58:41.620Z,38.54
2022-10-19T18:01:08.244Z,38.58
2022-10-19T18:03:35.047Z,38.61
2022-10-19T18:06:18.658Z,38.66
2022-10-19T18:08:47.390Z,38.63
2022-10-19T18:11:25.098Z,38.66
2022-10-19T18:13:52.152Z,38.75
2022-10-19T18:16:24.314Z,38.77
2022-10-19T18:18:51.877Z,38.75
2022-10-19T18:21:20.556Z,38.78
2022-10-19T18:23:47.211Z,38.92
2022-10-19T18:26:19.606Z,38.74
2022-10-19T18:28:46.482Z,38.79
2022-10-19T18:31:14.627Z,38.74
2022-10-19T18:33:41.270Z,38.74
2022-10-19T18:36:08.680Z,38.74
2022-10-19T18:38:35.235Z,38.70
2022-10-19T18:41:02.890Z,38.67
2022-10-19T18:43:29.356Z,38.86
2022-10-19T18:45:56.064Z,38.70
2022-10-19T18:48:22.453Z,38.67
2022-10-19T18:50:48.978Z,38.63
2022-10-19T18:53:15.409Z,38.76
2022-10-19T18:55:41.985Z,38.74
2022-10-19T18:58:08.664Z,38.89
2022-10-19T19:00:35.208Z,38.97
2022-10-19T19:03:01.589Z,38.91
2022-10-19T19:05:27.983Z,38.81
2022-10-19T19:07:56.027Z,38.81
2022-10-19T19:10:22.419Z,38.86
2022-10-19T19:12:49.251Z,38.72
2022-10-19T19:15:15.636Z,38.95
2022-10-19T19:17:42.018Z,38.78
2022-10-19T19:20:08.561Z,38.90
2022-10-19T19:22:35.157Z,38.84
2022-10-19T19:25:01.802Z,38.82
2022-10-19T19:27:31.620Z,38.82
2022-10-19T19:29:58.614Z,38.71
2022-10-19T19:32:25.025Z,38.76
2022-10-19T19:34:54.700Z,38.82
2022-10-19T19:37:21.390Z,38.72
2022-10-19T19:39:47.778Z,38.60
2022-10-19T19:42:14.194Z,38.64
2022-10-19T19:44:40.596Z,38.48
2022-10-19T19:47:08.228Z,38.53
2022-10-19T19:49:34.648Z,38.41
2022-10-19T19:52:01.056Z,38.52
2022-10-19T19:54:27.503Z,38.49
2022-10-19T19:56:53.993Z,38.47
2022-10-19T19:59:20.446Z,38.42
2022-10-19T20:01:47.000Z,38.33
2022-10-19T20:04:13.476Z,38.32
2022-10-19T20:06:40.142Z,38.28
2022-10-19T20:09:06.824Z,38.32
2022-10-19T20:11:33.988Z,38.32
2022-10-19T20:14:02.459Z,38.25
2022-10-19T20:16:29.842Z,38.12
2022-10-19T20:18:58.629Z,38.28
2022-10-19T20:21:25.787Z,38.12
2022-10-19T20:23:52.286Z,38.06
2022-10-19T20:26:19.306Z,38.00
2022-10-19T20:28:45.743Z,38.03
2022-10-19T20:31:12.364Z,37.95
2022-10-19T20:33:39.134Z,37.93
2022-10-19T20:36:06.659Z,37.91
2022-10-19T20:38:33.620Z,37.83
2022-10-19T20:41:04.230Z,37.90
2022-10-19T20:43:33.508Z,37.82
2022-10-19T20:46:06.431Z,37.82
2022-10-19T20:48:32.864Z,37.84
2022-10-19T20:51:12.353Z,37.72
2022-10-19T20:53:38.879Z,37.72
2022-10-19T20:56:05.951Z,37.67
2022-10-19T20:58:32.623Z,37.68
2022-10-19T21:01:04.540Z,37.64
2022-10-19T21:03:30.925Z,37.58
2022-10-19T21:05:57.315Z,37.60
2022-10-19T21:08:23.731Z,37.63
2022-10-19T21:10:50.136Z,37.54
2022-10-19T21:13:16.519Z,37.56
2022-10-19T21:15:42.923Z,37.54
2022-10-19T21:18:09.295Z,37.56
2022-10-19T21:20:35.696Z,37.52
2022-10-19T21:23:02.091Z,37.45
2022-10-19T21:25:30.408Z,37.45
2022-10-19T21:27:56.819Z,37.44
2022-10-19T21:30:23.221Z,37.43
2022-10-19T21:32:49.607Z,37.43
2022-10-19T21:35:16.030Z,37.39
2022-10-19T21:37:42.411Z,37.39
2022-10-19T21:40:09.104Z,37.32
2022-10-19T21:42:35.510Z,37.32
2022-10-19T21:45:25.144Z,37.30
2022-10-19T21:47:48.332Z,37.32
2022-10-19T21:50:17.357Z,37.26
2022-10-19T21:52:43.731Z,37.26
2022-10-19T21:55:10.213Z,37.25
2022-10-19T21:57:37.037Z,37.23
2022-10-19T22:00:04.092Z,37.20
2022-10-19T22:02:30.490Z,37.24
2022-10-19T22:04:58.035Z,37.25
2022-10-19T22:07:24.441Z,37.18
2022-10-19T22:09:50.971Z,37.17
2022-10-19T22:12:17.364Z,37.15
2022-10-19T22:14:45.382Z,37.13
2022-10-19T22:17:11.807Z,37.08
2022-10-19T22:19:38.264Z,37.08
2022-10-19T22:22:04.639Z,37.04
2022-10-19T22:24:31.035Z,37.01
2022-10-19T22:26:57.438Z,37.01
2022-10-19T22:29:23.832Z,37.01
2022-10-19T22:31:50.219Z,37.00
2022-10-19T22:34:16.941Z,36.95
2022-10-19T22:36:43.675Z,36.96
2022-10-19T22:39:10.184Z,36.90
2022-10-19T22:42:14.349Z,36.91
2022-10-19T22:44:40.721Z,36.94
2022-10-19T22:47:07.138Z,36.94
2022-10-19T22:49:33.549Z,36.91
2022-10-19T22:52:02.353Z,36.93
2022-10-19T22:54:28.813Z,36.91
2022-10-19T22:56:55.193Z,36.94
2022-10-19T22:59:21.688Z,36.89
2022-10-19T23:01:48.149Z,36.87
2022-10-19T23:04:14.629Z,36.86
2022-10-19T23:06:41.009Z,36.84
2022-10-19T23:09:07.383Z,36.85
2022-10-19T23:11:33.779Z,36.86
2022-10-19T23:14:00.231Z,36.83
2022-10-19T23:18:57.998Z,36.87
2022-10-19T23:21:24.389Z,36.87
2022-10-19T23:23:50.773Z,36.85
2022-10-19T23:26:17.939Z,36.88
2022-10-19T23:28:44.602Z,36.83
2022-10-19T23:31:12.035Z,36.81
2022-10-19T23:33:38.464Z,36.77
2022-10-19T23:36:16.538Z,36.82
2022-10-19T23:38:43.393Z,36.83
2022-10-19T23:41:09.856Z,36.82
2022-10-19T23:46:07.558Z,36.78
2022-10-19T23:48:34.563Z,36.80
2022-10-19T23:51:01.923Z,36.78
2022-10-19T23:53:28.349Z,36.78
2022-10-19T23:55:58.435Z,36.79
2022-10-19T23:58:24.823Z,36.79
